createdAt,value
2022-08-30T00:02:18.406Z,94331.63
2022-08-30T00:04:45.219Z,94331.63
2022-08-30T00:07:11.978Z,94331.69
2022-08-30T00:09:38.667Z,94331.44
2022-08-30T00:12:05.549Z,94331.56
2022-08-30T00:14:32.359Z,94327.91
2022-08-30T00:16:58.973Z,94337.13
2022-08-30T00:19:25.679Z,94339.59
2022-08-30T00:21:52.478Z,94333.44
2022-08-30T00:24:19.130Z,94337.47
2022-08-30T00:26:45.771Z,94333.50
2022-08-30T00:29:12.437Z,94337.34
2022-08-30T00:31:39.072Z,94332.91
2022-08-30T00:34:05.721Z,94335.75
2022-08-30T00:36:32.421Z,94326.50
2022-08-30T00:38:59.080Z,94330.06
2022-08-30T00:41:25.760Z,94336.28
2022-08-30T00:43:52.429Z,94326.91
2022-08-30T00:46:19.218Z,94328.00
2022-08-30T00:48:49.226Z,94330.91
2022-08-30T00:51:17.161Z,94330.69
2022-08-30T00:53:49.107Z,94329.84
2022-08-30T00:56:18.040Z,94325.38
2022-08-30T00:58:50.292Z,94328.94
2022-08-30T01:01:18.228Z,94335.53
2022-08-30T01:03:45.402Z,94337.75
2022-08-30T01:06:15.692Z,94343.97
2022-08-30T01:08:43.830Z,94338.66
2022-08-30T01:11:12.804Z,94337.22
2022-08-30T01:13:40.759Z,94325.59
2022-08-30T01:16:08.544Z,94326.69
2022-08-30T01:18:37.123Z,94327.44
2022-08-30T01:21:10.360Z,94326.78
2022-08-30T01:23:41.253Z,94328.69
2022-08-30T01:26:10.360Z,94329.38
2022-08-30T01:28:40.101Z,94324.59
2022-08-30T01:31:06.852Z,94328.09
2022-08-30T01:33:33.680Z,94331.56
2022-08-30T01:36:04.394Z,94326.97
2022-08-30T01:38:36.774Z,94326.28
2022-08-30T01:41:24.303Z,94336.22
2022-08-30T01:43:53.180Z,94339.31
2022-08-30T01:46:24.569Z,94329.59
2022-08-30T01:48:54.377Z,94324.56
2022-08-30T01:51:23.467Z,94318.66
2022-08-30T01:53:50.276Z,94320.53
2022-08-30T01:56:17.861Z,94314.19
2022-08-30T01:58:45.023Z,94319.94
2022-08-30T02:01:14.259Z,94312.94
2022-08-30T02:03:43.781Z,94311.94
2022-08-30T02:06:16.433Z,94312.13
2022-08-30T02:08:43.770Z,94310.69
2022-08-30T02:11:11.815Z,94310.41
2022-08-30T02:13:40.929Z,94315.03
2022-08-30T02:16:10.187Z,94308.88
2022-08-30T02:18:39.337Z,94305.63
2022-08-30T02:21:07.430Z,94300.03
2022-08-30T02:23:34.455Z,94297.59
2022-08-30T02:26:01.506Z,94297.78
2022-08-30T02:28:28.431Z,94300.28
2022-08-30T02:30:55.130Z,94298.97
2022-08-30T02:33:21.881Z,94305.53
2022-08-30T02:35:48.620Z,94303.38
2022-08-30T02:38:15.909Z,94313.06
2022-08-30T02:40:46.801Z,94309.94
2022-08-30T02:43:13.491Z,94309.72
2022-08-30T02:45:40.182Z,94308.56
2022-08-30T02:48:07.020Z,94304.91
2022-08-30T02:50:33.992Z,94309.41
2022-08-30T02:53:00.825Z,94305.72
2022-08-30T02:55:27.473Z,94301.59
2022-08-30T02:57:54.091Z,94300.94
2022-08-30T03:00:21.328Z,94301.09
2022-08-30T03:02:48.269Z,94294.94
2022-08-30T03:05:16.101Z,94295.00
2022-08-30T03:07:43.591Z,94291.34
2022-08-30T03:10:11.006Z,94296.03
2022-08-30T03:12:38.247Z,94307.97
2022-08-30T03:15:10.050Z,94295.44
2022-08-30T03:17:36.778Z,94301.50
2022-08-30T03:20:04.522Z,94300.81
2022-08-30T03:22:31.340Z,94304.00
2022-08-30T03:24:59.674Z,94311.06
2022-08-30T03:27:26.556Z,94310.22
2022-08-30T03:29:53.154Z,94311.28
2022-08-30T03:32:19.873Z,94312.13
2022-08-30T03:34:46.751Z,94311.53
2022-08-30T03:37:13.498Z,94316.16
2022-08-30T03:39:40.170Z,94316.28
2022-08-30T03:42:06.952Z,94313.03
2022-08-30T03:44:33.629Z,94312.03
2022-08-30T03:47:00.764Z,94316.72
2022-08-30T03:49:27.474Z,94315.75
2022-08-30T03:51:54.213Z,94315.13
2022-08-30T03:54:20.864Z,94319.28
2022-08-30T03:56:47.545Z,94317.03
2022-08-30T03:59:14.358Z,94322.19
2022-08-30T04:01:42.138Z,94325.34
2022-08-30T04:04:09.194Z,94317.84
2022-08-30T04:06:35.943Z,94320.50
2022-08-30T04:09:02.771Z,94316.44
2022-08-30T04:11:29.545Z,94311.59
2022-08-30T04:13:56.893Z,94324.28
2022-08-30T04:16:25.369Z,94316.31
2022-08-30T04:18:52.461Z,94327.13
2022-08-30T04:21:19.410Z,94327.78
2022-08-30T04:23:47.362Z,94333.28
2022-08-30T04:26:14.071Z,94331.59
2022-08-30T04:28:40.789Z,94323.78
2022-08-30T04:31:12.742Z,94326.22
2022-08-30T04:33:42.594Z,94330.94
2022-08-30T04:36:10.989Z,94324.72
2022-08-30T04:38:39.324Z,94330.88
2022-08-30T04:41:16.471Z,94327.91
2022-08-30T04:43:44.736Z,94335.19
2022-08-30T04:46:14.467Z,94340.75
2022-08-30T04:48:41.295Z,94336.34
2022-08-30T04:51:10.805Z,94331.47
2022-08-30T04:53:37.712Z,94339.75
2022-08-30T04:56:16.336Z,94348.66
2022-08-30T04:58:44.698Z,94353.19
2022-08-30T05:01:23.693Z,94348.78
2022-08-30T05:03:52.611Z,94351.63
2022-08-30T05:06:20.786Z,94354.97
2022-08-30T05:08:47.890Z,94360.13
2022-08-30T05:11:16.574Z,94359.44
2022-08-30T05:13:44.675Z,94362.63
2022-08-30T05:16:13.413Z,94358.88
2022-08-30T05:18:40.179Z,94374.34
2022-08-30T05:21:11.800Z,94370.69
2022-08-30T05:23:39.649Z,94368.06
2022-08-30T05:26:15.517Z,94369.13
2022-08-30T05:28:42.364Z,94362.88
2022-08-30T05:31:19.243Z,94371.16
2022-08-30T05:33:47.106Z,94367.13
2022-08-30T05:36:15.780Z,94368.09
2022-08-30T05:38:42.889Z,94370.50
2022-08-30T05:41:11.192Z,94375.22
2022-08-30T05:43:39.034Z,94379.63
2022-08-30T05:46:11.773Z,94372.44
2022-08-30T05:48:40.064Z,94380.69
2022-08-30T05:51:11.491Z,94376.69
2022-08-30T05:53:39.602Z,94369.13
2022-08-30T05:56:09.644Z,94373.41
2022-08-30T05:58:37.066Z,94371.78
2022-08-30T06:01:04.319Z,94376.44
2022-08-30T06:03:32.963Z,94367.78
2022-08-30T06:06:00.901Z,94375.50
2022-08-30T06:08:27.592Z,94361.13
2022-08-30T06:10:54.275Z,94371.91
2022-08-30T06:13:20.994Z,94367.66
2022-08-30T06:15:47.895Z,94373.72
2022-08-30T06:18:14.780Z,94368.63
2022-08-30T06:20:50.216Z,94383.41
2022-08-30T06:23:18.004Z,94386.28
2022-08-30T06:25:45.196Z,94391.97
2022-08-30T06:28:12.637Z,94385.38
2022-08-30T06:30:41.469Z,94384.94
2022-08-30T06:33:08.247Z,94383.72
2022-08-30T06:35:42.174Z,94389.81
2022-08-30T06:38:13.733Z,94394.75
2022-08-30T06:40:40.526Z,94394.03
2022-08-30T06:43:07.381Z,94394.13
2022-08-30T06:45:35.287Z,94403.84
2022-08-30T06:48:02.202Z,94402.75
2022-08-30T06:50:28.871Z,94409.84
2022-08-30T06:52:55.778Z,94407.88
2022-08-30T06:55:23.874Z,94405.59
2022-08-30T06:57:50.676Z,94404.09
2022-08-30T07:00:17.781Z,94413.41
2022-08-30T07:02:44.699Z,94407.69
2022-08-30T07:05:15.411Z,94420.13
2022-08-30T07:07:44.887Z,94411.09
2022-08-30T07:10:11.812Z,94408.00
2022-08-30T07:12:38.519Z,94412.88
2022-08-30T07:15:06.077Z,94420.75
2022-08-30T07:17:53.483Z,94412.16
2022-08-30T07:20:21.599Z,94419.75
2022-08-30T07:22:49.397Z,94417.03
2022-08-30T07:25:16.416Z,94416.03
2022-08-30T07:27:46.599Z,94423.88
2022-08-30T07:30:14.103Z,94417.41
2022-08-30T07:32:41.160Z,94420.41
2022-08-30T07:35:08.172Z,94424.19
2022-08-30T07:37:34.978Z,94417.75
2022-08-30T07:40:02.377Z,94414.88
2022-08-30T07:42:29.182Z,94421.66
2022-08-30T07:44:56.949Z,94424.75
2022-08-30T07:47:23.754Z,94418.72
2022-08-30T07:49:50.445Z,94419.91
2022-08-30T07:52:17.240Z,94427.13
2022-08-30T07:54:44.017Z,94427.88
2022-08-30T07:57:12.041Z,94424.22
2022-08-30T07:59:43.067Z,94424.75
2022-08-30T08:02:09.797Z,94425.88
2022-08-30T08:04:36.563Z,94426.53
2022-08-30T08:07:06.043Z,94432.56
2022-08-30T08:09:34.125Z,94427.25
2022-08-30T08:12:00.831Z,94427.28
2022-08-30T08:14:28.467Z,94425.84
2022-08-30T08:16:55.132Z,94433.75
2022-08-30T08:19:21.980Z,94427.44
2022-08-30T08:21:59.369Z,94430.72
2022-08-30T08:24:36.330Z,94429.47
2022-08-30T08:27:03.036Z,94429.91
2022-08-30T08:29:30.121Z,94432.47
2022-08-30T08:31:57.985Z,94425.84
2022-08-30T08:34:24.842Z,94427.78
2022-08-30T08:36:51.773Z,94415.34
2022-08-30T08:39:18.794Z,94425.16
2022-08-30T08:42:16.635Z,94412.06
2022-08-30T08:44:51.608Z,94416.72
2022-08-30T08:47:45.076Z,94409.19
2022-08-30T08:50:18.630Z,94410.97
2022-08-30T08:53:45.955Z,94415.66
2022-08-30T08:56:15.644Z,94412.03
2022-08-30T08:58:51.687Z,94408.28
2022-08-30T09:01:22.253Z,94409.59
2022-08-30T09:03:50.225Z,94421.09
2022-08-30T09:06:39.693Z,94414.78
2022-08-30T09:09:13.413Z,94406.91
2022-08-30T09:11:44.290Z,94413.69
2022-08-30T09:14:19.323Z,94409.03
2022-08-30T09:16:50.319Z,94415.91
2022-08-30T09:19:40.055Z,94422.38
2022-08-30T09:22:31.716Z,94416.94
2022-08-30T09:25:06.698Z,94419.66
2022-08-30T09:27:45.448Z,94418.69
2022-08-30T09:30:23.521Z,94412.69
2022-08-30T09:32:54.277Z,94429.34
2022-08-30T09:35:52.115Z,94426.94
2022-08-30T09:38:32.776Z,94421.75
2022-08-30T09:41:02.547Z,94419.25
2022-08-30T09:43:34.258Z,94421.34
2022-08-30T09:46:01.422Z,94421.56
2022-08-30T09:48:45.919Z,94425.16
2022-08-30T09:51:15.350Z,94419.13
2022-08-30T09:54:07.117Z,94414.84
2022-08-30T09:56:40.528Z,94415.38
2022-08-30T09:59:22.142Z,94414.31
2022-08-30T10:01:59.226Z,94405.38
2022-08-30T10:05:31.117Z,94402.81
2022-08-30T10:08:18.011Z,94399.88
2022-08-30T10:10:47.446Z,94393.34
2022-08-30T10:13:33.738Z,94397.09
2022-08-30T10:16:17.251Z,94394.03
2022-08-30T10:19:04.255Z,94390.94
2022-08-30T10:21:41.553Z,94396.31
2022-08-30T10:24:20.798Z,94393.56
2022-08-30T10:26:57.585Z,94382.94
2022-08-30T10:29:31.536Z,94384.47
2022-08-30T10:32:03.269Z,94384.19
2022-08-30T10:34:41.865Z,94383.38
2022-08-30T10:37:17.463Z,94378.69
2022-08-30T10:39:52.064Z,94376.84
2022-08-30T10:42:27.993Z,94372.44
2022-08-30T10:45:08.454Z,94375.22
2022-08-30T10:47:50.364Z,94369.13
2022-08-30T10:50:21.631Z,94367.06
2022-08-30T10:53:02.242Z,94357.19
2022-08-30T10:55:35.581Z,94364.47
2022-08-30T10:58:05.534Z,94355.75
2022-08-30T11:00:45.264Z,94358.84
2022-08-30T11:03:46.024Z,94350.41
2022-08-30T11:06:25.211Z,94358.56
2022-08-30T11:09:10.344Z,94350.56
2022-08-30T11:11:45.547Z,94346.75
2022-08-30T11:14:17.130Z,94346.38
2022-08-30T11:16:48.488Z,94339.25
2022-08-30T11:19:24.638Z,94348.69
2022-08-30T11:21:53.681Z,94342.88
2022-08-30T11:24:25.537Z,94339.56
2022-08-30T11:26:57.758Z,94334.97
2022-08-30T11:29:30.917Z,94326.75
2022-08-30T11:32:20.146Z,94334.41
2022-08-30T11:34:46.732Z,94334.81
2022-08-30T11:37:54.583Z,94335.59
2022-08-30T11:40:24.477Z,94334.66
2022-08-30T11:42:54.499Z,94335.84
2022-08-30T11:45:25.254Z,94333.66
2022-08-30T11:47:59.653Z,94335.53
2022-08-30T11:50:48.563Z,94323.25
2022-08-30T11:53:37.327Z,94323.91
2022-08-30T11:56:16.742Z,94325.75
2022-08-30T11:58:57.359Z,94325.13
2022-08-30T12:01:50.603Z,94318.03
2022-08-30T12:04:26.321Z,94322.94
2022-08-30T12:07:05.579Z,94312.50
2022-08-30T12:09:35.200Z,94311.69
2022-08-30T12:12:06.393Z,94309.22
2022-08-30T12:14:41.057Z,94304.66
2022-08-30T12:17:41.100Z,94303.75
2022-08-30T12:20:24.953Z,94291.91
2022-08-30T12:22:53.439Z,94290.91
2022-08-30T12:25:34.144Z,94291.91
2022-08-30T12:28:24.162Z,94281.59
2022-08-30T12:30:51.822Z,94277.38
2022-08-30T12:33:41.733Z,94276.94
2022-08-30T12:36:14.228Z,94258.16
2022-08-30T12:38:41.644Z,94263.47
2022-08-30T12:41:08.672Z,94257.44
2022-08-30T12:43:47.344Z,94263.41
2022-08-30T12:46:19.164Z,94257.22
2022-08-30T12:48:48.198Z,94252.09
2022-08-30T12:51:38.255Z,94253.00
2022-08-30T12:54:21.257Z,94244.28
2022-08-30T12:56:50.482Z,94255.56
2022-08-30T12:59:40.591Z,94246.28
2022-08-30T13:02:20.529Z,94255.78
2022-08-30T13:05:47.752Z,94259.41
2022-08-30T13:08:25.279Z,94252.16
2022-08-30T13:11:24.936Z,94257.22
2022-08-30T13:14:30.010Z,94263.50
2022-08-30T13:17:26.191Z,94268.44
2022-08-30T13:20:01.053Z,94264.31
2022-08-30T13:22:38.331Z,94261.25
2022-08-30T13:25:06.432Z,94259.50
2022-08-30T13:27:36.906Z,94259.03
2022-08-30T13:30:13.477Z,94264.19
2022-08-30T13:32:40.871Z,94258.19
2022-08-30T13:35:08.557Z,94263.09
2022-08-30T13:37:51.932Z,94253.13
2022-08-30T13:40:21.308Z,94252.47
2022-08-30T13:42:48.627Z,94249.84
2022-08-30T13:48:04.182Z,94244.28
2022-08-30T13:50:30.939Z,94244.31
2022-08-30T13:52:57.981Z,94233.47
2022-08-30T13:55:24.733Z,94228.78
2022-08-30T13:57:55.529Z,94227.94
2022-08-30T14:00:25.004Z,94225.38
2022-08-30T14:02:57.583Z,94217.75
2022-08-30T14:05:49.560Z,94225.59
2022-08-30T14:11:18.590Z,94214.84
2022-08-30T14:16:35.479Z,94212.88
2022-08-30T14:19:02.485Z,94223.34
2022-08-30T14:21:29.400Z,94222.47
2022-08-30T14:23:58.838Z,94218.78
2022-08-30T14:26:34.304Z,94211.03
2022-08-30T14:29:03.647Z,94197.22
2022-08-30T14:31:32.931Z,94202.69
2022-08-30T14:34:04.131Z,94203.03
2022-08-30T14:36:33.131Z,94201.94
2022-08-30T14:39:01.073Z,94202.78
2022-08-30T14:41:27.794Z,94199.34
2022-08-30T14:43:54.528Z,94189.25
2022-08-30T14:46:22.143Z,94195.81
2022-08-30T14:48:50.347Z,94192.97
2022-08-30T14:51:19.719Z,94188.00
2022-08-30T14:53:47.533Z,94190.75
2022-08-30T14:56:19.441Z,94186.22
2022-08-30T14:58:52.148Z,94189.13
2022-08-30T15:01:20.157Z,94190.16
2022-08-30T15:03:47.063Z,94183.00
2022-08-30T15:06:14.044Z,94190.41
2022-08-30T15:08:41.219Z,94179.97
2022-08-30T15:11:14.438Z,94186.22
2022-08-30T15:13:44.369Z,94184.38
2022-08-30T15:16:33.840Z,94182.41
2022-08-30T15:19:02.319Z,94185.91
2022-08-30T15:21:32.978Z,94184.31
2022-08-30T15:24:02.261Z,94180.31
2022-08-30T15:26:29.383Z,94181.91
2022-08-30T15:28:56.919Z,94177.22
2022-08-30T15:31:28.193Z,94178.53
2022-08-30T15:33:55.481Z,94179.56
2022-08-30T15:36:24.075Z,94173.09
2022-08-30T15:38:55.381Z,94172.84
2022-08-30T15:41:22.936Z,94179.59
2022-08-30T15:43:50.411Z,94177.72
2022-08-30T15:46:22.665Z,94187.19
2022-08-30T15:48:51.970Z,94174.97
2022-08-30T15:51:19.257Z,94166.88
2022-08-30T15:53:46.586Z,94168.75
2022-08-30T15:56:13.808Z,94164.00
2022-08-30T15:58:41.567Z,94169.47
2022-08-30T16:01:09.263Z,94165.75
2022-08-30T16:03:37.779Z,94173.97
2022-08-30T16:06:04.839Z,94168.31
2022-08-30T16:08:31.471Z,94167.84
2022-08-30T16:10:58.185Z,94170.59
2022-08-30T16:13:24.817Z,94169.09
2022-08-30T16:15:51.530Z,94172.63
2022-08-30T16:18:18.251Z,94168.75
2022-08-30T16:20:45.032Z,94165.50
2022-08-30T16:23:11.900Z,94168.31
2022-08-30T16:25:40.815Z,94164.53
2022-08-30T16:28:09.502Z,94169.19
2022-08-30T16:30:36.684Z,94169.06
2022-08-30T16:33:03.488Z,94177.28
2022-08-30T16:35:30.156Z,94179.69
2022-08-30T16:37:56.788Z,94181.66
2022-08-30T16:40:23.620Z,94182.31
2022-08-30T16:42:50.783Z,94179.06
2022-08-30T16:45:17.958Z,94185.41
2022-08-30T16:47:46.004Z,94180.06
2022-08-30T16:50:13.090Z,94170.88
2022-08-30T16:52:44.018Z,94178.44
2022-08-30T16:55:10.963Z,94187.28
2022-08-30T16:57:38.776Z,94189.91
2022-08-30T17:00:13.363Z,94196.28
2022-08-30T17:02:41.020Z,94203.19
2022-08-30T17:05:14.763Z,94198.97
2022-08-30T17:07:42.058Z,94206.97
2022-08-30T17:10:09.041Z,94205.56
2022-08-30T17:12:35.794Z,94204.56
2022-08-30T17:15:05.596Z,94200.38
2022-08-30T17:17:32.862Z,94204.25
2022-08-30T17:19:59.520Z,94203.09
2022-08-30T17:22:26.280Z,94204.91
2022-08-30T17:24:53.447Z,94209.63
2022-08-30T17:27:20.185Z,94207.31
2022-08-30T17:29:47.871Z,94216.78
2022-08-30T17:32:14.750Z,94217.78
2022-08-30T17:34:41.417Z,94219.75
2022-08-30T17:37:08.638Z,94214.88
2022-08-30T17:39:36.499Z,94215.84
2022-08-30T17:42:03.766Z,94218.28
2022-08-30T17:44:33.945Z,94221.59
2022-08-30T17:47:00.811Z,94216.22
2022-08-30T17:49:29.038Z,94226.94
2022-08-30T17:51:57.149Z,94230.25
2022-08-30T17:54:26.741Z,94230.19
2022-08-30T17:56:54.426Z,94237.25
2022-08-30T17:59:25.026Z,94243.34
2022-08-30T18:01:52.985Z,94241.13
2022-08-30T18:04:20.477Z,94238.25
2022-08-30T18:06:48.106Z,94236.38
2022-08-30T18:09:16.054Z,94240.00
2022-08-30T18:11:42.842Z,94248.97
2022-08-30T18:14:11.365Z,94252.47
2022-08-30T18:16:43.884Z,94246.75
2022-08-30T18:19:19.105Z,94250.28
2022-08-30T18:21:45.750Z,94253.44
2022-08-30T18:24:12.632Z,94258.63
2022-08-30T18:26:43.150Z,94257.19
2022-08-30T18:29:11.058Z,94254.97
2022-08-30T18:31:38.317Z,94255.84
2022-08-30T18:34:06.161Z,94256.75
2022-08-30T18:36:33.982Z,94246.44
2022-08-30T18:39:00.845Z,94257.81
2022-08-30T18:41:27.735Z,94250.66
2022-08-30T18:44:17.155Z,94255.84
2022-08-30T18:47:31.858Z,94254.00
2022-08-30T18:49:32.545Z,94245.81
2022-08-30T18:52:00.228Z,94253.97
2022-08-30T18:54:28.089Z,94258.41
2022-08-30T18:56:54.890Z,94253.69
2022-08-30T18:59:21.640Z,94259.22
2022-08-30T19:01:49.763Z,94257.59
2022-08-30T19:04:22.304Z,94262.19
2022-08-30T19:06:57.127Z,94254.75
2022-08-30T19:09:24.326Z,94248.63
2022-08-30T19:11:53.434Z,94251.28
2022-08-30T19:14:20.138Z,94252.94
2022-08-30T19:16:47.941Z,94257.03
2022-08-30T19:19:14.722Z,94262.22
2022-08-30T19:21:42.021Z,94253.91
2022-08-30T19:24:09.316Z,94266.69
2022-08-30T19:26:37.369Z,94262.50
2022-08-30T19:29:05.984Z,94262.09
2022-08-30T19:31:33.472Z,94258.94
2022-08-30T19:34:00.809Z,94256.13
2022-08-30T19:36:28.988Z,94263.97
2022-08-30T19:38:56.049Z,94252.28
2022-08-30T19:41:22.870Z,94254.16
2022-08-30T19:43:51.582Z,94253.41
2022-08-30T19:46:18.534Z,94258.75
2022-08-30T19:48:45.333Z,94254.50
2022-08-30T19:51:14.267Z,94264.06
2022-08-30T19:53:42.087Z,94253.53
2022-08-30T19:56:08.824Z,94261.13
2022-08-30T19:58:35.604Z,94255.28
2022-08-30T20:01:10.838Z,94257.91
2022-08-30T20:03:39.839Z,94246.88
2022-08-30T20:06:07.882Z,94247.25
2022-08-30T20:08:35.793Z,94246.19
2022-08-30T20:11:03.460Z,94255.56
2022-08-30T20:13:30.073Z,94249.53
2022-08-30T20:16:01.260Z,94243.13
2022-08-30T20:18:28.894Z,94245.88
2022-08-30T20:20:56.369Z,94241.59
2022-08-30T20:23:25.477Z,94236.06
2022-08-30T20:25:54.519Z,94237.16
2022-08-30T20:28:22.341Z,94242.75
2022-08-30T20:30:49.676Z,94242.56
2022-08-30T20:33:16.941Z,94243.13
2022-08-30T20:35:48.765Z,94242.47
2022-08-30T20:38:21.335Z,94246.31
2022-08-30T20:40:53.970Z,94250.84
2022-08-30T20:43:22.968Z,94248.22
2022-08-30T20:45:50.262Z,94242.06
2022-08-30T20:48:17.712Z,94242.81
2022-08-30T20:50:44.734Z,94243.16
2022-08-30T20:53:12.251Z,94243.66
2022-08-30T20:55:47.420Z,94244.97
2022-08-30T20:58:15.210Z,94243.00
2022-08-30T21:00:45.973Z,94243.28
2022-08-30T21:03:27.375Z,94248.06
2022-08-30T21:05:55.842Z,94244.34
2022-08-30T21:08:22.708Z,94254.38
2022-08-30T21:10:49.771Z,94253.72
2022-08-30T21:13:17.309Z,94247.69
2022-08-30T21:15:46.154Z,94246.28
2022-08-30T21:18:13.869Z,94241.53
2022-08-30T21:20:40.614Z,94242.28
2022-08-30T21:23:07.380Z,94242.13
2022-08-30T21:25:34.281Z,94244.41
2022-08-30T21:28:01.354Z,94238.94
2022-08-30T21:30:28.121Z,94238.13
2022-08-30T21:32:55.184Z,94232.00
2022-08-30T21:35:45.271Z,94230.91
2022-08-30T21:38:11.947Z,94228.31
2022-08-30T21:40:38.638Z,94230.94
2022-08-30T21:43:07.532Z,94232.53
2022-08-30T21:45:38.456Z,94223.19
2022-08-30T21:48:05.762Z,94223.50
2022-08-30T21:50:32.579Z,94226.84
2022-08-30T21:52:59.411Z,94214.50
2022-08-30T21:55:26.220Z,94216.38
2022-08-30T21:57:54.718Z,94215.50
2022-08-30T22:00:22.146Z,94216.59
2022-08-30T22:02:52.453Z,94226.31
2022-08-30T22:05:20.264Z,94223.00
2022-08-30T22:07:46.963Z,94230.88
2022-08-30T22:10:15.323Z,94224.56
2022-08-30T22:12:41.936Z,94225.72
2022-08-30T22:15:09.112Z,94235.06
2022-08-30T22:17:35.734Z,94227.28
2022-08-30T22:20:02.651Z,94233.06
2022-08-30T22:22:29.343Z,94229.00
2022-08-30T22:24:56.054Z,94238.09
2022-08-30T22:27:22.703Z,94235.63
2022-08-30T22:29:49.332Z,94240.19
2022-08-30T22:32:16.084Z,94241.16
2022-08-30T22:34:45.504Z,94248.56
2022-08-30T22:37:12.180Z,94248.00
2022-08-30T22:39:38.860Z,94242.13
2022-08-30T22:42:05.834Z,94245.13
2022-08-30T22:44:32.490Z,94243.31
2022-08-30T22:47:00.785Z,94240.81
2022-08-30T22:49:27.604Z,94239.66
2022-08-30T22:51:54.456Z,94241.13
2022-08-30T22:54:21.094Z,94234.59
2022-08-30T22:56:47.814Z,94236.47
2022-08-30T22:59:15.139Z,94230.63
2022-08-30T23:01:43.328Z,94233.06
2022-08-30T23:04:11.318Z,94228.75
2022-08-30T23:06:38.058Z,94224.75
2022-08-30T23:09:06.600Z,94226.22
2022-08-30T23:11:34.051Z,94229.78
2022-08-30T23:14:02.396Z,94222.84
2022-08-30T23:16:29.244Z,94225.94
2022-08-30T23:18:56.235Z,94215.66
2022-08-30T23:21:27.190Z,94217.69
2022-08-30T23:24:14.587Z,94216.78
2022-08-30T23:27:01.758Z,94220.91
2022-08-30T23:29:49.309Z,94205.66
2022-08-30T23:32:34.981Z,94208.88
2022-08-30T23:35:20.580Z,94205.41
2022-08-30T23:38:12.108Z,94202.94
2022-08-30T23:40:57.641Z,94204.06
2022-08-30T23:43:42.922Z,94201.34
2022-08-30T23:46:28.460Z,94198.38
2022-08-30T23:49:14.108Z,94202.88
2022-08-30T23:51:59.214Z,94206.09
2022-08-30T23:54:44.725Z,94203.22
2022-08-30T23:57:29.856Z,94198.31
